createdAt,value
2022-12-13T00:02:03.130Z,98988.69
2022-12-13T00:04:33.211Z,98989.56
2022-12-13T00:07:02.808Z,98989.56
2022-12-13T00:09:32.585Z,99005.03
2022-12-13T00:12:02.379Z,99000.75
2022-12-13T00:14:33.699Z,99001.63
2022-12-13T00:17:03.646Z,99002.50
2022-12-13T00:19:33.037Z,99008.56
2022-12-13T00:22:02.963Z,99005.22
2022-12-13T00:24:32.577Z,99006.88
2022-12-13T00:27:02.183Z,99007.72
2022-12-13T00:29:32.302Z,99010.25
2022-12-13T00:32:01.884Z,99010.31
2022-12-13T00:34:32.069Z,99018.88
2022-12-13T00:37:01.803Z,99013.72
2022-12-13T00:39:31.345Z,99023.13
2022-12-13T00:42:01.433Z,99015.41
2022-12-13T00:44:32.236Z,99019.66
2022-12-13T00:47:02.226Z,99021.41
2022-12-13T00:49:31.693Z,99029.13
2022-12-13T00:52:01.330Z,99036.00
2022-12-13T00:54:31.039Z,99033.44
2022-12-13T00:57:00.665Z,99034.25
2022-12-13T00:59:30.362Z,99037.72
2022-12-13T01:02:00.115Z,99036.00
2022-12-13T01:04:29.821Z,99044.56
2022-12-13T01:06:59.439Z,99046.34
2022-12-13T01:09:30.943Z,99045.47
2022-12-13T01:12:02.986Z,99057.44
2022-12-13T01:14:32.902Z,99054.91
2022-12-13T01:17:02.969Z,99059.19
2022-12-13T01:19:33.950Z,99060.91
2022-12-13T01:22:08.558Z,99063.44
2022-12-13T01:24:38.229Z,99062.63
2022-12-13T01:27:08.471Z,99067.78
2022-12-13T01:29:38.790Z,99069.56
2022-12-13T01:32:08.469Z,99066.13
2022-12-13T01:34:38.413Z,99068.69
2022-12-13T01:37:08.224Z,99068.69
2022-12-13T01:39:37.831Z,99072.13
2022-12-13T01:42:08.383Z,99072.97
2022-12-13T01:45:08.104Z,99077.13
2022-12-13T01:48:07.127Z,99090.09
2022-12-13T01:50:42.188Z,99096.19
2022-12-13T01:53:20.569Z,99103.97
2022-12-13T01:55:56.423Z,99105.69
2022-12-13T01:58:27.897Z,99108.28
2022-12-13T02:00:58.270Z,99108.28
2022-12-13T02:03:28.667Z,99122.88
2022-12-13T02:06:12.219Z,99122.88
2022-12-13T02:08:43.359Z,99128.91
2022-12-13T02:11:14.540Z,99124.59
2022-12-13T02:13:44.729Z,99126.34
2022-12-13T02:16:22.443Z,99137.53
2022-12-13T02:19:18.307Z,99142.66
2022-12-13T02:22:32.047Z,99146.91
2022-12-13T02:25:28.906Z,99154.72
2022-12-13T02:28:30.614Z,99151.25
2022-12-13T02:31:39.850Z,99162.44
2022-12-13T02:34:22.351Z,99169.31
2022-12-13T02:37:24.247Z,99177.00
2022-12-13T02:39:59.507Z,99190.81
2022-12-13T02:42:39.523Z,99191.66
2022-12-13T02:45:26.748Z,99200.25
2022-12-13T02:47:59.773Z,99209.72
2022-12-13T02:50:30.481Z,99199.44
2022-12-13T02:53:02.384Z,99206.28
2022-12-13T02:55:33.567Z,99204.59
2022-12-13T02:58:03.628Z,99205.44
2022-12-13T03:00:45.398Z,99206.22
2022-12-13T03:03:27.571Z,99215.72
2022-12-13T03:06:26.009Z,99209.59
2022-12-13T03:09:16.751Z,99220.78
2022-12-13T03:12:25.425Z,99229.34
2022-12-13T03:15:01.211Z,99226.75
2022-12-13T03:17:39.175Z,99227.63
2022-12-13T03:20:22.224Z,99230.28
2022-12-13T03:22:54.439Z,99237.09
2022-12-13T03:25:32.171Z,99238.78
2022-12-13T03:28:03.643Z,99245.63
2022-12-13T03:30:34.668Z,99243.84
2022-12-13T03:33:04.439Z,99251.63
2022-12-13T03:35:45.267Z,99254.16
2022-12-13T03:38:22.314Z,99257.53
2022-12-13T03:40:59.371Z,99256.56
2022-12-13T03:43:30.387Z,99265.22
2022-12-13T03:46:00.196Z,99268.78
2022-12-13T03:48:30.006Z,99269.53
2022-12-13T03:50:59.964Z,99273.03
2022-12-13T03:53:33.460Z,99276.44
2022-12-13T03:56:06.466Z,99279.69
2022-12-13T03:58:38.333Z,99292.59
2022-12-13T04:01:10.741Z,99294.34
2022-12-13T04:03:41.899Z,99299.53
2022-12-13T04:06:21.968Z,99305.47
2022-12-13T04:08:53.860Z,99307.06
2022-12-13T04:11:43.239Z,99308.81
2022-12-13T04:14:22.335Z,99309.59
2022-12-13T04:16:53.849Z,99309.63
2022-12-13T04:19:24.299Z,99317.22
2022-12-13T04:21:55.703Z,99318.84
2022-12-13T04:24:31.929Z,99314.47
2022-12-13T04:27:03.402Z,99312.66
2022-12-13T04:29:34.501Z,99317.84
2022-12-13T04:32:26.521Z,99322.22
2022-12-13T04:35:01.029Z,99329.16
2022-12-13T04:37:43.379Z,99340.00
2022-12-13T04:40:14.013Z,99335.13
2022-12-13T04:42:54.116Z,99339.03
2022-12-13T04:45:24.386Z,99340.81
2022-12-13T04:47:54.236Z,99342.41
2022-12-13T04:50:23.671Z,99333.53
2022-12-13T04:52:53.687Z,99338.66
2022-12-13T04:55:23.214Z,99345.56
2022-12-13T04:57:53.447Z,99350.56
2022-12-13T05:00:24.196Z,99337.63
2022-12-13T05:02:54.373Z,99337.47
2022-12-13T05:05:24.322Z,99331.34
2022-12-13T05:07:53.769Z,99336.34
2022-12-13T05:10:34.227Z,99326.69
2022-12-13T05:13:08.225Z,99335.22
2022-12-13T05:15:39.197Z,99334.19
2022-12-13T05:18:10.636Z,99340.16
2022-12-13T05:20:41.500Z,99346.16
2022-12-13T05:23:11.182Z,99339.06
2022-12-13T05:25:40.603Z,99336.78
2022-12-13T05:28:27.445Z,99336.25
2022-12-13T05:31:00.044Z,99331.69
2022-12-13T05:33:29.999Z,99329.78
2022-12-13T05:36:02.056Z,99323.78
2022-12-13T05:38:32.825Z,99326.25
2022-12-13T05:41:02.597Z,99325.28
2022-12-13T05:43:42.395Z,99325.06
2022-12-13T05:46:13.615Z,99323.97
2022-12-13T05:48:44.774Z,99306.44
2022-12-13T05:51:14.730Z,99313.19
2022-12-13T05:53:47.310Z,99314.03
2022-12-13T05:56:22.348Z,99306.06
2022-12-13T05:58:53.637Z,99301.66
2022-12-13T06:01:24.668Z,99302.16
2022-12-13T06:03:54.789Z,99303.84
2022-12-13T06:06:24.673Z,99303.84
2022-12-13T06:08:54.491Z,99300.06
2022-12-13T06:11:31.689Z,99304.25
2022-12-13T06:14:02.310Z,99298.06
2022-12-13T06:16:32.046Z,99297.19
2022-12-13T06:19:04.687Z,99295.84
2022-12-13T06:21:43.854Z,99296.59
2022-12-13T06:24:20.942Z,99291.84
2022-12-13T06:26:52.799Z,99289.16
2022-12-13T06:29:25.686Z,99276.16
2022-12-13T06:32:01.170Z,99275.09
2022-12-13T06:34:36.093Z,99269.00
2022-12-13T06:37:10.330Z,99268.78
2022-12-13T06:39:41.042Z,99267.81
2022-12-13T06:42:21.457Z,99259.47
2022-12-13T06:44:55.751Z,99252.84
2022-12-13T06:47:32.041Z,99250.44
2022-12-13T06:50:05.016Z,99245.28
2022-12-13T06:52:36.414Z,99235.47
2022-12-13T06:55:06.809Z,99242.25
2022-12-13T06:57:37.321Z,99229.31
2022-12-13T07:00:11.785Z,99225.53
2022-12-13T07:02:41.446Z,99222.06
2022-12-13T07:05:12.509Z,99215.72
2022-12-13T07:07:42.126Z,99213.22
2022-12-13T07:10:21.520Z,99212.94
2022-12-13T07:12:52.126Z,99193.78
2022-12-13T07:15:22.312Z,99194.66
2022-12-13T07:17:53.259Z,99191.81
2022-12-13T07:20:24.857Z,99185.56
2022-12-13T07:22:59.086Z,99186.31
2022-12-13T07:25:29.833Z,99181.09
2022-12-13T07:28:04.597Z,99184.06
2022-12-13T07:30:41.695Z,99179.41
2022-12-13T07:33:12.884Z,99172.75
2022-12-13T07:36:19.132Z,99164.41
2022-12-13T07:38:57.121Z,99161.19
2022-12-13T07:41:28.492Z,99156.13
2022-12-13T07:43:58.576Z,99156.28
2022-12-13T07:46:33.275Z,99155.72
2022-12-13T07:49:04.335Z,99150.94
2022-12-13T07:51:36.568Z,99144.41
2022-12-13T07:54:09.885Z,99136.28
2022-12-13T07:56:39.647Z,99120.03
2022-12-13T07:59:11.187Z,99132.56
2022-12-13T08:01:41.084Z,99121.56
2022-12-13T08:04:11.522Z,99116.22
2022-12-13T08:06:46.102Z,99119.81
2022-12-13T08:09:16.195Z,99116.69
2022-12-13T08:11:46.219Z,99113.47
2022-12-13T08:14:16.039Z,99101.22
2022-12-13T08:16:45.927Z,99101.94
2022-12-13T08:19:16.058Z,99100.31
2022-12-13T08:21:55.246Z,99105.13
2022-12-13T08:24:27.456Z,99090.94
2022-12-13T08:27:02.372Z,99088.44
2022-12-13T08:29:36.234Z,99082.41
2022-12-13T08:32:09.679Z,99091.81
2022-12-13T08:34:40.551Z,99082.41
2022-12-13T08:37:10.468Z,99087.50
2022-12-13T08:39:41.487Z,99081.84
2022-12-13T08:42:19.346Z,99082.59
2022-12-13T08:44:55.024Z,99086.00
2022-12-13T08:47:27.449Z,99084.59
2022-12-13T08:50:04.428Z,99082.31
2022-12-13T08:52:40.589Z,99080.66
2022-12-13T08:55:14.680Z,99077.09
2022-12-13T08:57:45.918Z,99067.44
2022-12-13T09:00:20.001Z,99074.47
2022-12-13T09:02:50.038Z,99066.19
2022-12-13T09:05:32.414Z,99065.50
2022-12-13T09:08:23.007Z,99060.28
2022-12-13T09:11:00.096Z,99058.56
2022-12-13T09:13:32.935Z,99052.53
2022-12-13T09:16:22.909Z,99048.78
2022-12-13T09:18:57.003Z,99045.50
2022-12-13T09:21:31.435Z,99041.66
2022-12-13T09:24:02.780Z,99041.03
2022-12-13T09:26:38.368Z,99029.75
2022-12-13T09:29:10.942Z,99037.56
2022-12-13T09:31:42.438Z,99028.69
2022-12-13T09:34:13.941Z,99030.63
2022-12-13T09:36:44.424Z,99023.47
2022-12-13T09:39:14.267Z,99015.66
2022-12-13T09:42:01.411Z,99023.34
2022-12-13T09:44:43.826Z,99017.13
2022-12-13T09:47:39.217Z,99012.88
2022-12-13T09:50:40.429Z,99022.00
2022-12-13T09:53:21.702Z,99018.78
2022-12-13T09:55:53.534Z,99026.13
2022-12-13T09:58:41.229Z,99016.78
2022-12-13T10:01:13.744Z,99021.50
2022-12-13T10:04:02.966Z,99021.38
2022-12-13T10:06:35.853Z,99017.75
2022-12-13T10:09:12.352Z,99006.94
2022-12-13T10:11:53.918Z,99002.81
2022-12-13T10:14:41.432Z,99010.66
2022-12-13T10:17:17.777Z,99003.59
2022-12-13T10:19:52.601Z,99002.81
2022-12-13T10:22:26.783Z,99001.94
2022-12-13T10:25:07.372Z,98994.75
2022-12-13T10:27:42.869Z,98996.00
2022-12-13T10:30:28.471Z,98997.00
2022-12-13T10:33:07.455Z,98996.78
2022-12-13T10:35:42.444Z,99005.22
2022-12-13T10:38:18.329Z,99006.69
2022-12-13T10:40:50.114Z,99006.53
2022-12-13T10:43:31.498Z,99000.50
2022-12-13T10:46:03.961Z,99007.69
2022-12-13T10:48:48.388Z,99005.53
2022-12-13T10:51:24.182Z,98999.00
2022-12-13T10:54:01.635Z,99006.59
2022-12-13T10:56:51.671Z,98999.53
2022-12-13T10:59:29.224Z,98996.97
2022-12-13T11:01:58.950Z,99004.94
2022-12-13T11:04:37.284Z,98987.47
2022-12-13T11:07:28.197Z,98978.84
2022-12-13T11:10:05.651Z,98984.56
2022-12-13T11:12:45.407Z,98989.88
2022-12-13T11:15:30.558Z,98991.44
2022-12-13T11:18:06.130Z,98989.31
2022-12-13T11:20:39.118Z,98985.06
2022-12-13T11:23:30.691Z,98977.94
2022-12-13T11:26:06.925Z,98983.78
2022-12-13T11:28:54.830Z,98986.84
2022-12-13T11:31:30.656Z,98987.47
2022-12-13T11:34:30.987Z,98977.25
2022-12-13T11:37:28.553Z,98972.81
2022-12-13T11:40:16.824Z,98971.63
2022-12-13T11:42:53.744Z,98981.53
2022-12-13T11:45:26.659Z,98988.72
2022-12-13T11:48:03.074Z,98981.41
2022-12-13T11:50:45.803Z,98982.94
2022-12-13T11:53:21.845Z,98977.00
2022-12-13T11:56:22.762Z,98982.44
2022-12-13T11:59:20.709Z,98985.25
2022-12-13T12:02:16.793Z,98980.13
2022-12-13T12:04:58.076Z,98980.75
2022-12-13T12:07:35.969Z,98981.78
2022-12-13T12:10:29.511Z,98969.88
2022-12-13T12:13:23.597Z,98977.88
2022-12-13T12:16:21.459Z,98979.72
2022-12-13T12:18:53.311Z,98979.38
2022-12-13T12:22:12.029Z,98984.44
2022-12-13T12:25:15.986Z,98981.09
2022-12-13T12:28:30.390Z,98984.69
2022-12-13T12:31:12.616Z,98988.38
2022-12-13T12:33:58.028Z,98987.78
2022-12-13T12:36:30.259Z,98990.81
2022-12-13T12:39:12.328Z,98994.44
2022-12-13T12:41:51.091Z,98995.22
2022-12-13T12:44:35.695Z,99001.50
2022-12-13T12:48:39.491Z,98992.00
2022-12-13T12:50:45.897Z,98999.16
2022-12-13T12:53:31.207Z,98997.41
2022-12-13T12:56:24.187Z,98993.94
2022-12-13T12:59:12.080Z,98994.72
2022-12-13T13:01:54.862Z,99000.97
2022-12-13T13:04:34.916Z,99004.69
2022-12-13T13:07:23.354Z,99009.44
2022-12-13T13:09:55.698Z,98999.19
2022-12-13T13:12:29.942Z,98996.66
2022-12-13T13:15:01.967Z,99008.00
2022-12-13T13:17:31.590Z,99003.84
2022-12-13T13:20:34.135Z,98999.84
2022-12-13T13:23:38.621Z,99003.53
2022-12-13T13:26:26.100Z,99009.09
2022-12-13T13:28:56.174Z,99009.34
2022-12-13T13:31:26.222Z,99008.66
2022-12-13T13:33:55.940Z,99001.19
2022-12-13T13:36:41.821Z,99007.84
2022-12-13T13:40:00.618Z,99014.88
2022-12-13T13:42:32.803Z,99016.22
2022-12-13T13:45:02.369Z,99015.94
2022-12-13T13:47:35.747Z,99019.78
2022-12-13T13:50:18.785Z,99016.06
2022-12-13T13:52:58.075Z,99018.16
2022-12-13T13:55:39.799Z,99017.25
2022-12-13T13:58:34.021Z,99022.34
2022-12-13T14:01:36.565Z,99010.09
2022-12-13T14:04:28.339Z,99017.09
2022-12-13T14:07:33.929Z,99018.03
2022-12-13T14:10:38.865Z,99019.69
2022-12-13T14:13:34.445Z,99018.88
2022-12-13T14:16:38.167Z,99017.28
2022-12-13T14:19:45.831Z,99012.31
2022-12-13T14:22:31.611Z,99026.47
2022-12-13T14:25:13.466Z,99017.94
2022-12-13T14:27:54.797Z,99018.22
2022-12-13T14:30:26.870Z,99013.97
2022-12-13T14:32:58.467Z,99020.03
2022-12-13T14:35:33.712Z,99019.84
2022-12-13T14:38:06.007Z,99020.91
2022-12-13T14:40:48.688Z,99020.88
2022-12-13T14:43:30.296Z,99024.00
2022-12-13T14:46:06.600Z,99020.56
2022-12-13T14:48:55.679Z,99023.13
2022-12-13T14:51:35.035Z,99012.72
2022-12-13T14:54:07.925Z,99020.66
2022-12-13T14:56:55.228Z,99013.88
2022-12-13T14:59:25.737Z,99016.50
2022-12-13T15:02:00.980Z,99016.19
2022-12-13T15:04:38.445Z,99018.06
2022-12-13T15:07:31.635Z,99023.13
2022-12-13T15:10:09.740Z,99025.75
2022-12-13T15:12:44.882Z,99022.41
2022-12-13T15:15:37.260Z,99017.94
2022-12-13T15:18:20.724Z,99015.44
2022-12-13T15:20:54.564Z,99011.31
2022-12-13T15:23:34.939Z,99011.22
2022-12-13T15:26:29.067Z,99009.53
2022-12-13T15:29:09.406Z,99009.56
2022-12-13T15:31:41.491Z,99007.09
2022-12-13T15:34:30.548Z,99001.56
2022-12-13T15:37:29.629Z,99005.06
2022-12-13T15:40:10.419Z,99000.84
2022-12-13T15:42:45.727Z,99007.97
2022-12-13T15:45:22.957Z,99013.03
2022-12-13T15:47:54.585Z,99010.66
2022-12-13T15:50:47.224Z,99012.38
2022-12-13T15:53:30.221Z,99008.94
2022-12-13T15:56:04.748Z,99010.13
2022-12-13T15:58:38.918Z,99009.25
2022-12-13T16:01:08.922Z,99007.59
2022-12-13T16:03:48.121Z,99006.47
2022-12-13T16:06:23.362Z,99013.44
2022-12-13T16:09:00.105Z,99008.34
2022-12-13T16:12:05.720Z,99010.78
2022-12-13T16:14:54.825Z,99010.84
2022-12-13T16:17:56.097Z,99010.22
2022-12-13T16:20:30.139Z,99006.00
2022-12-13T16:23:08.778Z,99006.94
2022-12-13T16:25:41.734Z,99016.50
2022-12-13T16:28:17.432Z,99008.72
2022-12-13T16:30:57.184Z,99007.72
2022-12-13T16:33:28.620Z,99010.59
2022-12-13T16:36:07.717Z,99005.53
2022-12-13T16:38:38.651Z,99005.47
2022-12-13T16:41:09.984Z,99006.38
2022-12-13T16:43:54.846Z,99008.75
2022-12-13T16:47:16.058Z,99010.66
2022-12-13T16:49:26.426Z,99008.00
2022-12-13T16:51:57.481Z,99003.97
2022-12-13T16:54:28.584Z,99001.47
2022-12-13T16:56:58.732Z,98996.41
2022-12-13T16:59:30.725Z,99000.53
2022-12-13T17:02:04.065Z,98992.84
2022-12-13T17:04:35.004Z,98997.09
2022-12-13T17:07:05.359Z,98992.75
2022-12-13T17:09:36.628Z,98991.94
2022-12-13T17:12:07.311Z,98989.38
2022-12-13T17:14:37.182Z,98988.66
2022-12-13T17:17:06.927Z,98984.41
2022-12-13T17:19:37.429Z,98989.66
2022-12-13T17:22:07.451Z,98989.66
2022-12-13T17:24:37.496Z,98985.44
2022-12-13T17:27:07.585Z,98972.44
2022-12-13T17:29:39.352Z,98977.66
2022-12-13T17:32:09.997Z,98972.59
2022-12-13T17:34:39.874Z,98972.59
2022-12-13T17:37:10.765Z,98969.97
2022-12-13T17:39:41.179Z,98963.16
2022-12-13T17:42:13.007Z,98964.06
2022-12-13T17:44:44.244Z,98959.84
2022-12-13T17:47:15.160Z,98953.84
2022-12-13T17:49:48.344Z,98950.50
2022-12-13T17:52:18.967Z,98951.44
2022-12-13T17:54:49.636Z,98950.72
2022-12-13T17:57:20.258Z,98942.16
2022-12-13T17:59:50.802Z,98942.16
2022-12-13T18:02:24.237Z,98935.44
2022-12-13T18:04:54.195Z,98936.41
2022-12-13T18:07:26.185Z,98936.53
2022-12-13T18:09:56.003Z,98938.25
2022-12-13T18:12:25.637Z,98935.84
2022-12-13T18:14:55.752Z,98929.78
2022-12-13T18:17:46.620Z,98919.63
2022-12-13T18:20:16.006Z,98915.22
2022-12-13T18:22:51.142Z,98920.50
2022-12-13T18:25:21.282Z,98916.28
2022-12-13T18:27:51.579Z,98908.47
2022-12-13T18:30:23.243Z,98909.97
2022-12-13T18:32:52.911Z,98921.59
2022-12-13T18:35:22.558Z,98912.16
2022-12-13T18:37:53.434Z,98910.53
2022-12-13T18:40:23.202Z,98915.81
2022-12-13T18:42:53.724Z,98913.22
2022-12-13T18:45:23.350Z,98926.25
2022-12-13T18:47:52.979Z,98918.56
2022-12-13T18:50:22.969Z,98921.97
2022-12-13T18:52:53.022Z,98916.81
2022-12-13T18:55:22.728Z,98919.47
2022-12-13T18:57:54.044Z,98916.94
2022-12-13T19:00:25.324Z,98914.31
2022-12-13T19:02:55.167Z,98922.19
2022-12-13T19:05:25.126Z,98914.53
2022-12-13T19:07:55.126Z,98912.91
2022-12-13T19:10:24.923Z,98909.53
2022-12-13T19:12:54.779Z,98910.50
2022-12-13T19:15:24.521Z,98907.97
2022-12-13T19:17:54.801Z,98904.69
2022-12-13T19:20:24.645Z,98898.50
2022-12-13T19:22:55.029Z,98906.31
2022-12-13T19:25:24.838Z,98896.81
2022-12-13T19:27:57.690Z,98902.81
2022-12-13T19:30:28.013Z,98900.25
2022-12-13T19:32:57.752Z,98897.72
2022-12-13T19:35:27.699Z,98894.38
2022-12-13T19:37:57.065Z,98896.28
2022-12-13T19:40:26.685Z,98892.84
2022-12-13T19:42:56.863Z,98891.97
2022-12-13T19:45:26.356Z,98879.03
2022-12-13T19:47:55.913Z,98880.81
2022-12-13T19:50:25.909Z,98884.31
2022-12-13T19:52:55.452Z,98892.03
2022-12-13T19:55:24.809Z,98889.56
2022-12-13T19:57:54.812Z,98881.91
2022-12-13T20:00:24.536Z,98883.66
2022-12-13T20:02:54.683Z,98882.81
2022-12-13T20:05:24.841Z,98878.50
2022-12-13T20:07:59.139Z,98876.03
2022-12-13T20:10:29.774Z,98876.06
2022-12-13T20:12:59.653Z,98873.53
2022-12-13T20:15:29.864Z,98877.81
2022-12-13T20:17:59.658Z,98877.88
2022-12-13T20:20:46.977Z,98869.28
2022-12-13T20:23:20.522Z,98879.66
2022-12-13T20:26:00.143Z,98871.06
2022-12-13T20:28:30.268Z,98876.31
2022-12-13T20:31:17.287Z,98880.47
2022-12-13T20:33:47.228Z,98878.03
2022-12-13T20:36:25.801Z,98889.13
2022-12-13T20:39:01.998Z,98884.81
2022-12-13T20:41:34.339Z,98887.44
2022-12-13T20:44:06.330Z,98884.88
2022-12-13T20:46:36.344Z,98899.53
2022-12-13T20:49:08.425Z,98888.28
2022-12-13T20:51:42.616Z,98888.25
2022-12-13T20:54:12.371Z,98887.50
2022-12-13T20:56:42.234Z,98890.94
2022-12-13T20:59:14.909Z,98890.84
2022-12-13T21:01:48.782Z,98889.09
2022-12-13T21:04:19.738Z,98884.00
2022-12-13T21:06:49.590Z,98896.88
2022-12-13T21:09:19.397Z,98892.69
2022-12-13T21:11:51.351Z,98891.81
2022-12-13T21:14:26.608Z,98901.28
2022-12-13T21:17:01.584Z,98897.03
2022-12-13T21:19:39.318Z,98900.53
2022-12-13T21:22:10.104Z,98897.09
2022-12-13T21:24:39.895Z,98895.50
2022-12-13T21:27:09.617Z,98896.28
2022-12-13T21:29:39.477Z,98892.00
2022-12-13T21:32:09.219Z,98897.13
2022-12-13T21:34:38.741Z,98898.88
2022-12-13T21:37:08.586Z,98896.34
2022-12-13T21:39:41.158Z,98894.59
2022-12-13T21:42:11.310Z,98898.97
2022-12-13T21:44:40.908Z,98899.84
2022-12-13T21:47:12.204Z,98899.00
2022-12-13T21:49:48.824Z,98902.41
2022-12-13T21:52:18.755Z,98899.84
2022-12-13T21:54:48.294Z,98896.44
2022-12-13T21:57:38.176Z,98896.44
2022-12-13T22:00:09.476Z,98896.47
2022-12-13T22:02:42.057Z,98890.47
2022-12-13T22:05:12.327Z,98884.47
2022-12-13T22:07:41.931Z,98885.31
2022-12-13T22:10:11.500Z,98888.72
2022-12-13T22:12:43.096Z,98884.38
2022-12-13T22:15:17.716Z,98876.63
2022-12-13T22:17:47.642Z,98883.56
2022-12-13T22:20:17.198Z,98877.53
2022-12-13T22:22:49.747Z,98871.53
2022-12-13T22:25:19.914Z,98871.50
2022-12-13T22:27:49.728Z,98864.66
2022-12-13T22:30:19.091Z,98864.66
2022-12-13T22:32:48.710Z,98864.66
2022-12-13T22:35:18.271Z,98862.94
2022-12-13T22:37:51.040Z,98861.19
2022-12-13T22:40:20.855Z,98856.09
2022-12-13T22:42:50.132Z,98863.88
2022-12-13T22:45:19.795Z,98862.16
2022-12-13T22:47:50.449Z,98869.88
2022-12-13T22:50:21.818Z,98863.03
2022-12-13T22:52:51.772Z,98856.13
2022-12-13T22:55:21.746Z,98865.66
2022-12-13T22:57:54.353Z,98857.06
2022-12-13T23:00:24.090Z,98849.38
2022-12-13T23:02:56.589Z,98854.50
2022-12-13T23:05:25.730Z,98851.03
2022-12-13T23:07:55.684Z,98858.03
2022-12-13T23:10:43.540Z,98855.47
2022-12-13T23:13:15.916Z,98857.13
2022-12-13T23:15:49.352Z,98856.31
2022-12-13T23:18:19.602Z,98857.16
2022-12-13T23:20:48.937Z,98859.72
2022-12-13T23:23:18.749Z,98848.56
2022-12-13T23:25:48.852Z,98852.88
2022-12-13T23:28:19.067Z,98848.56
2022-12-13T23:30:48.860Z,98846.88
2022-12-13T23:33:18.866Z,98844.31
2022-12-13T23:35:48.053Z,98839.16
2022-12-13T23:38:18.086Z,98842.59
2022-12-13T23:40:47.700Z,98841.78
2022-12-13T23:43:17.964Z,98838.34
2022-12-13T23:45:47.582Z,98846.91
2022-12-13T23:48:19.191Z,98847.78
2022-12-13T23:50:52.350Z,98838.34
2022-12-13T23:53:22.879Z,98841.75
2022-12-13T23:55:52.844Z,98839.19
2022-12-13T23:58:24.008Z,98843.47
